createdAt,value
2019-04-21T00:00:37.418Z,38.28
2019-04-21T00:03:15.138Z,37.42
2019-04-21T00:06:03.319Z,39.70
2019-04-21T00:08:35.352Z,36.98
2019-04-21T00:11:09.350Z,34.63
2019-04-21T00:13:32.847Z,37.63
2019-04-21T00:15:58.964Z,37.05
2019-04-21T00:18:50.682Z,38.28
2019-04-21T00:21:26.488Z,38.30
2019-04-21T00:24:05.836Z,35.85
2019-04-21T00:26:41.351Z,30.17
2019-04-21T00:29:16.611Z,29.98
2019-04-21T00:31:41.961Z,30.08
2019-04-21T00:34:00.449Z,30.15
2019-04-21T00:36:43.026Z,32.55
2019-04-21T00:39:43.703Z,32.88
2019-04-21T00:42:05.688Z,33.80
2019-04-21T00:44:32.030Z,38.20
2019-04-21T00:47:07.629Z,37.17
2019-04-21T00:49:42.737Z,35.00
2019-04-21T00:52:30.269Z,35.48
2019-04-21T00:55:10.967Z,34.05
2019-04-21T00:57:32.432Z,34.15
2019-04-21T01:00:00.925Z,32.58
2019-04-21T01:02:41.667Z,31.17
2019-04-21T01:05:16.597Z,34.90
2019-04-21T01:07:46.521Z,33.80
2019-04-21T01:10:09.147Z,36.55
2019-04-21T01:12:54.930Z,34.58
2019-04-21T01:15:33.400Z,33.33
2019-04-21T01:18:01.487Z,32.03
2019-04-21T01:20:16.701Z,33.95
2019-04-21T01:22:41.431Z,33.92
2019-04-21T01:25:30.235Z,34.35
2019-04-21T01:28:16.929Z,30.62
2019-04-21T01:30:44.922Z,34.03
2019-04-21T01:33:30.724Z,34.70
2019-04-21T01:35:55.027Z,33.53
2019-04-21T01:38:46.249Z,30.27
2019-04-21T01:41:12.966Z,29.75
2019-04-21T01:43:42.793Z,26.52
2019-04-21T01:46:19.607Z,23.00
2019-04-21T01:48:53.994Z,25.40
2019-04-21T01:51:39.798Z,23.62
2019-04-21T01:54:35.145Z,24.02
2019-04-21T01:57:17.634Z,23.60
2019-04-21T01:59:42.508Z,25.80
2019-04-21T02:02:26.528Z,26.40
2019-04-21T02:05:03.132Z,27.65
2019-04-21T02:07:27.074Z,28.55
2019-04-21T02:10:05.136Z,29.35
2019-04-21T02:12:31.793Z,29.35
2019-04-21T02:15:13.606Z,32.50
2019-04-21T02:17:42.136Z,37.83
2019-04-21T02:20:09.405Z,35.08
2019-04-21T02:23:08.059Z,60.75
2019-04-21T02:25:23.107Z,38.28
2019-04-21T02:27:57.716Z,44.90
2019-04-21T02:31:05.378Z,57.67
2019-04-21T02:33:18.631Z,57.93
2019-04-21T02:36:04.854Z,51.85
2019-04-21T02:38:30.736Z,47.75
2019-04-21T02:40:51.400Z,39.90
2019-04-21T02:43:28.902Z,41.60
2019-04-21T02:46:16.769Z,42.73
2019-04-21T02:48:43.459Z,47.08
2019-04-21T02:51:10.448Z,41.28
2019-04-21T02:54:03.766Z,37.85
2019-04-21T02:56:21.722Z,36.35
2019-04-21T02:59:10.845Z,42.90
2019-04-21T03:01:56.853Z,41.92
2019-04-21T03:04:32.182Z,46.23
2019-04-21T03:07:15.063Z,43.95
2019-04-21T03:17:29.571Z,38.75
2019-04-21T03:20:14.535Z,37.65
2019-04-21T03:22:24.270Z,36.23
2019-04-21T03:27:40.613Z,38.08
2019-04-21T03:30:28.186Z,41.55
2019-04-21T03:33:14.053Z,39.98
2019-04-21T03:35:49.050Z,40.98
2019-04-21T03:37:36.458Z,35.13
2019-04-21T03:45:24.992Z,34.50
2019-04-21T03:47:59.171Z,31.87
2019-04-21T03:50:27.744Z,31.30
2019-04-21T03:53:06.849Z,29.98
2019-04-21T04:00:49.782Z,35.88
2019-04-21T04:06:03.569Z,34.60
2019-04-21T04:11:24.814Z,33.35
2019-04-21T04:13:58.085Z,33.83
2019-04-21T04:16:20.302Z,33.55
2019-04-21T04:18:53.267Z,30.70
2019-04-21T04:21:28.858Z,29.18
2019-04-21T04:24:19.598Z,30.27
2019-04-21T04:26:33.655Z,32.73
2019-04-21T04:31:41.753Z,34.73
2019-04-21T04:36:55.237Z,34.13
2019-04-21T04:39:36.605Z,32.05
2019-04-21T04:42:04.926Z,33.67
2019-04-21T04:44:51.634Z,26.12
2019-04-21T04:49:46.380Z,22.50
2019-04-21T04:52:25.683Z,21.95
2019-04-21T04:54:47.181Z,20.60
2019-04-21T04:57:16.412Z,21.57
2019-04-21T04:59:49.900Z,20.10
2019-04-21T05:02:35.606Z,21.35
2019-04-21T05:07:27.289Z,19.57
2019-04-21T05:09:52.241Z,20.48
2019-04-21T05:12:26.802Z,19.73
2019-04-21T05:15:04.846Z,16.70
2019-04-21T05:20:08.698Z,18.10
2019-04-21T05:22:30.120Z,15.98
2019-04-21T05:24:53.763Z,14.75
2019-04-21T05:27:40.966Z,14.43
2019-04-21T05:30:23.193Z,14.15
2019-04-21T05:33:13.573Z,14.95
2019-04-21T05:35:45.084Z,15.18
2019-04-21T05:38:16.683Z,14.90
2019-04-21T05:40:43.821Z,15.58
2019-04-21T05:43:28.091Z,16.30
2019-04-21T05:46:10.483Z,16.25
2019-04-21T05:48:37.679Z,14.58
2019-04-21T05:50:59.123Z,13.40
2019-04-21T05:53:35.664Z,12.75
2019-04-21T05:56:12.889Z,11.55
2019-04-21T05:58:43.619Z,10.72
2019-04-21T06:01:23.739Z,9.93
2019-04-21T06:03:52.762Z,9.10
2019-04-21T06:06:27.069Z,7.80
2019-04-21T06:08:52.642Z,7.30
2019-04-21T06:11:44.283Z,7.83
2019-04-21T06:14:01.410Z,8.20
2019-04-21T06:16:38.230Z,7.60
2019-04-21T06:19:05.104Z,6.87
2019-04-21T06:21:38.865Z,5.90
2019-04-21T06:24:11.579Z,7.37
2019-04-21T06:29:18.517Z,5.75
2019-04-21T06:32:13.926Z,6.20
2019-04-21T06:34:23.486Z,6.15
2019-04-21T06:37:07.867Z,5.17
2019-04-21T06:39:44.926Z,5.05
2019-04-21T06:42:02.781Z,4.28
2019-04-21T06:44:48.219Z,4.10
2019-04-21T06:47:16.312Z,4.20
2019-04-21T06:49:44.250Z,4.33
2019-04-21T06:54:56.108Z,3.55
2019-04-21T06:57:22.144Z,3.42
2019-04-21T06:59:50.629Z,3.45
2019-04-21T07:05:02.074Z,3.92
2019-04-21T07:07:27.613Z,3.60
2019-04-21T07:10:10.297Z,3.27
2019-04-21T07:12:37.073Z,2.72
2019-04-21T07:15:13.320Z,2.40
2019-04-21T07:17:45.414Z,1.95
2019-04-21T07:20:21.792Z,2.52
2019-04-21T07:23:07.632Z,2.95
2019-04-21T07:25:32.859Z,3.08
2019-04-21T07:28:05.359Z,2.55
2019-04-21T07:30:37.107Z,2.72
2019-04-21T07:33:37.407Z,2.50
2019-04-21T07:35:44.490Z,2.70
2019-04-21T07:38:09.638Z,2.87
2019-04-21T07:40:42.639Z,2.50
2019-04-21T07:43:12.138Z,2.75
2019-04-21T07:45:44.453Z,2.42
2019-04-21T07:48:29.712Z,2.92
2019-04-21T07:51:04.566Z,2.70
2019-04-21T07:53:51.553Z,3.87
2019-04-21T07:55:59.332Z,2.92
2019-04-21T07:58:54.098Z,3.40
2019-04-21T08:03:52.356Z,2.77
2019-04-21T08:06:28.377Z,3.15
2019-04-21T08:09:09.037Z,3.92
2019-04-21T08:11:32.685Z,3.72
2019-04-21T08:14:13.968Z,2.83
2019-04-21T08:16:44.948Z,3.25
2019-04-21T08:19:12.939Z,3.00
2019-04-21T08:21:52.946Z,3.50
2019-04-21T08:24:23.938Z,3.08
2019-04-21T08:27:01.481Z,2.90
2019-04-21T08:29:32.885Z,3.25
2019-04-21T08:32:09.776Z,3.52
2019-04-21T08:34:41.554Z,3.70
2019-04-21T08:37:08.638Z,3.12
2019-04-21T08:39:51.024Z,3.42
2019-04-21T08:42:10.953Z,3.65
2019-04-21T08:44:47.887Z,3.40
2019-04-21T08:47:20.351Z,3.50
2019-04-21T08:49:50.587Z,3.75
2019-04-21T08:52:34.675Z,3.33
2019-04-21T08:55:07.186Z,3.40
2019-04-21T08:57:41.442Z,3.15
2019-04-21T09:00:12.550Z,3.22
2019-04-21T09:03:00.276Z,3.45
2019-04-21T09:05:23.522Z,3.47
2019-04-21T09:07:58.118Z,3.22
2019-04-21T09:10:33.411Z,3.35
2019-04-21T09:13:03.172Z,3.37
2019-04-21T09:15:35.090Z,3.55
2019-04-21T09:18:08.842Z,3.50
2019-04-21T09:23:24.215Z,3.27
2019-04-21T09:25:52.543Z,3.67
2019-04-21T09:28:21.100Z,3.20
2019-04-21T09:30:42.881Z,3.33
2019-04-21T09:33:09.256Z,3.25
2019-04-21T09:35:55.534Z,3.25
2019-04-21T09:38:39.870Z,3.20
2019-04-21T09:41:27.437Z,3.58
2019-04-21T09:44:01.694Z,3.25
2019-04-21T09:46:35.379Z,3.15
2019-04-21T09:49:09.516Z,3.42
2019-04-21T09:51:37.874Z,3.33
2019-04-21T09:54:16.022Z,2.98
2019-04-21T09:56:50.397Z,3.15
2019-04-21T09:59:20.810Z,3.70
2019-04-21T10:01:59.199Z,3.20
2019-04-21T10:04:18.683Z,4.60
2019-04-21T10:06:50.293Z,3.05
2019-04-21T10:09:21.746Z,2.85
2019-04-21T10:11:52.816Z,2.75
2019-04-21T10:14:24.294Z,2.65
2019-04-21T10:17:13.278Z,3.33
2019-04-21T10:19:44.251Z,3.20
2019-04-21T10:22:15.250Z,3.17
2019-04-21T10:24:46.743Z,3.47
2019-04-21T10:27:18.906Z,3.37
2019-04-21T10:29:50.595Z,3.37
2019-04-21T10:32:25.266Z,3.02
2019-04-21T10:34:59.096Z,3.35
2019-04-21T10:37:42.549Z,3.42
2019-04-21T10:40:03.604Z,3.95
2019-04-21T10:42:35.464Z,3.27
2019-04-21T10:45:07.389Z,3.20
2019-04-21T10:47:38.854Z,3.20
2019-04-21T10:50:10.949Z,3.15
2019-04-21T10:53:00.859Z,3.50
2019-04-21T10:55:48.563Z,3.87
2019-04-21T10:58:07.051Z,3.75
2019-04-21T11:00:39.877Z,3.75
2019-04-21T11:03:29.241Z,4.20
2019-04-21T11:06:03.272Z,3.42
2019-04-21T11:08:41.057Z,4.17
2019-04-21T11:11:07.855Z,4.17
2019-04-21T11:13:38.911Z,4.03
2019-04-21T11:16:10.969Z,3.62
2019-04-21T11:18:42.223Z,3.80
2019-04-21T11:21:13.421Z,3.12
2019-04-21T11:23:44.427Z,3.37
2019-04-21T11:26:16.017Z,3.83
2019-04-21T11:28:47.229Z,3.10
2019-04-21T11:31:18.809Z,3.25
2019-04-21T11:33:51.193Z,3.00
2019-04-21T11:36:23.284Z,3.05
2019-04-21T11:39:23.264Z,3.83
2019-04-21T11:41:45.634Z,3.58
2019-04-21T11:44:16.645Z,3.72
2019-04-21T11:46:48.839Z,2.80
2019-04-21T11:49:20.059Z,3.77
2019-04-21T11:51:51.172Z,3.50
2019-04-21T11:54:22.601Z,4.00
2019-04-21T11:56:56.632Z,3.05
2019-04-21T11:59:27.978Z,3.45
2019-04-21T12:01:59.343Z,3.65
2019-04-21T12:04:30.109Z,2.98
2019-04-21T12:07:01.899Z,3.12
2019-04-21T12:09:33.350Z,2.90
2019-04-21T12:12:11.742Z,3.27
2019-04-21T12:14:43.833Z,4.30
2019-04-21T12:17:16.052Z,3.27
2019-04-21T12:19:48.434Z,3.00
2019-04-21T12:22:23.677Z,3.30
2019-04-21T12:24:53.732Z,3.40
2019-04-21T12:27:25.682Z,3.37
2019-04-21T12:29:58.095Z,3.30
2019-04-21T12:32:38.056Z,3.65
2019-04-21T12:35:13.157Z,3.08
2019-04-21T12:37:48.987Z,3.10
2019-04-21T12:40:38.882Z,3.17
2019-04-21T12:43:12.633Z,3.33
2019-04-21T12:48:33.792Z,3.47
2019-04-21T12:51:25.956Z,3.10
2019-04-21T12:53:59.656Z,2.90
2019-04-21T12:56:31.596Z,4.17
2019-04-21T12:59:06.177Z,3.40
2019-04-21T13:01:39.207Z,3.35
2019-04-21T13:04:10.336Z,2.65
2019-04-21T13:06:41.673Z,3.77
2019-04-21T13:09:16.425Z,3.30
2019-04-21T13:11:45.112Z,3.80
2019-04-21T13:14:16.174Z,3.55
2019-04-21T13:16:51.816Z,2.98
2019-04-21T13:19:24.999Z,2.95
2019-04-21T13:21:58.379Z,3.58
2019-04-21T13:24:31.714Z,3.37
2019-04-21T13:27:07.476Z,3.52
2019-04-21T13:29:43.945Z,3.77
2019-04-21T13:32:16.270Z,3.05
2019-04-21T13:34:47.764Z,3.27
2019-04-21T13:37:19.489Z,3.83
2019-04-21T13:40:29.171Z,3.87
2019-04-21T13:42:55.304Z,3.35
2019-04-21T13:45:24.063Z,3.72
2019-04-21T13:47:56.735Z,3.33
2019-04-21T13:50:33.323Z,3.65
2019-04-21T13:53:12.306Z,3.30
2019-04-21T13:55:46.589Z,4.45
2019-04-21T13:58:17.850Z,3.62
2019-04-21T14:00:50.505Z,3.40
2019-04-21T14:03:23.427Z,3.75
2019-04-21T14:05:56.192Z,3.60
2019-04-21T14:08:31.473Z,3.83
2019-04-21T14:11:02.121Z,3.50
2019-04-21T14:13:36.847Z,4.78
2019-04-21T14:16:08.100Z,3.90
2019-04-21T14:18:40.667Z,3.70
2019-04-21T14:21:11.684Z,4.30
2019-04-21T14:23:45.973Z,4.62
2019-04-21T14:26:16.270Z,7.30
2019-04-21T14:28:47.261Z,9.05
2019-04-21T14:31:18.074Z,4.10
2019-04-21T14:33:50.030Z,3.25
2019-04-21T14:36:20.994Z,4.17
2019-04-21T14:38:52.364Z,3.90
2019-04-21T14:41:26.225Z,4.70
2019-04-21T14:43:58.508Z,4.12
2019-04-21T14:46:31.598Z,3.95
2019-04-21T14:49:11.086Z,3.92
2019-04-21T14:51:43.338Z,4.60
2019-04-21T14:54:31.194Z,5.72
2019-04-21T14:57:11.434Z,6.37
2019-04-21T14:59:58.109Z,5.25
2019-04-21T15:02:33.819Z,5.70
2019-04-21T15:05:09.408Z,4.60
2019-04-21T15:07:55.125Z,5.08
2019-04-21T15:10:36.747Z,5.00
2019-04-21T15:15:54.288Z,4.55
2019-04-21T15:18:26.736Z,4.72
2019-04-21T15:20:59.365Z,4.80
2019-04-21T15:23:32.102Z,4.37
2019-04-21T15:26:10.295Z,4.45
2019-04-21T15:28:42.485Z,4.58
2019-04-21T15:31:20.490Z,5.20
2019-04-21T15:33:52.856Z,5.28
2019-04-21T15:36:31.819Z,4.78
2019-04-21T15:39:01.592Z,6.58
2019-04-21T15:41:38.576Z,5.03
2019-04-21T15:44:22.867Z,5.60
2019-04-21T15:47:00.205Z,4.92
2019-04-21T15:49:40.535Z,5.37
2019-04-21T15:52:05.037Z,5.70
2019-04-21T15:54:36.451Z,4.70
2019-04-21T15:57:08.988Z,4.15
2019-04-21T15:59:54.987Z,4.45
2019-04-21T16:02:36.842Z,4.62
2019-04-21T16:05:12.862Z,6.85
2019-04-21T16:07:44.444Z,7.35
2019-04-21T16:10:28.627Z,6.40
2019-04-21T16:12:49.761Z,4.90
2019-04-21T16:15:20.883Z,6.15
2019-04-21T16:17:53.204Z,7.70
2019-04-21T16:20:24.125Z,7.35
2019-04-21T16:22:55.171Z,10.78
2019-04-21T16:25:26.706Z,10.95
2019-04-21T16:27:57.828Z,9.50
2019-04-21T16:30:28.865Z,8.70
2019-04-21T16:32:59.921Z,13.15
2019-04-21T16:35:31.688Z,14.40
2019-04-21T16:38:04.062Z,14.25
2019-04-21T16:40:48.178Z,15.48
2019-04-21T16:43:08.183Z,20.20
2019-04-21T16:45:39.180Z,30.80
2019-04-21T16:48:10.202Z,43.28
2019-04-21T16:50:41.535Z,30.20
2019-04-21T16:53:24.004Z,30.37
2019-04-21T16:56:15.314Z,26.57
2019-04-21T16:58:52.470Z,21.00
2019-04-21T17:01:26.209Z,23.10
2019-04-21T17:03:58.337Z,24.82
2019-04-21T17:06:29.436Z,29.82
2019-04-21T17:09:00.947Z,31.60
2019-04-21T17:11:35.398Z,35.28
2019-04-21T17:14:05.681Z,31.35
2019-04-21T17:17:15.552Z,33.65
2019-04-21T17:19:33.462Z,37.13
2019-04-21T17:22:01.717Z,36.83
2019-04-21T17:24:38.024Z,37.67
2019-04-21T17:27:09.122Z,35.45
2019-04-21T17:29:40.889Z,38.67
2019-04-21T17:32:12.227Z,133.07
2019-04-21T17:34:45.730Z,160.67
2019-04-21T17:37:17.509Z,97.30
2019-04-21T17:39:49.199Z,75.05
2019-04-21T17:42:30.027Z,46.75
2019-04-21T17:44:55.323Z,38.15
2019-04-21T17:47:41.586Z,57.15
2019-04-21T17:50:17.831Z,38.92
2019-04-21T17:52:59.293Z,38.83
2019-04-21T17:55:37.407Z,28.65
2019-04-21T17:58:21.986Z,31.37
2019-04-21T18:03:46.170Z,24.85
2019-04-21T18:06:05.283Z,21.68
2019-04-21T18:08:47.995Z,24.85
2019-04-21T18:11:06.018Z,26.87
2019-04-21T18:13:30.560Z,43.70
2019-04-21T18:16:16.462Z,29.75
2019-04-21T18:18:34.881Z,29.00
2019-04-21T18:21:14.513Z,30.72
2019-04-21T18:24:00.161Z,23.32
2019-04-21T18:26:29.131Z,23.70
2019-04-21T18:28:54.895Z,22.10
2019-04-21T18:31:26.905Z,20.37
2019-04-21T18:34:10.114Z,23.35
2019-04-21T18:36:41.967Z,24.27
2019-04-21T18:39:43.648Z,24.30
2019-04-21T18:42:26.511Z,22.45
2019-04-21T18:45:28.420Z,22.15
2019-04-21T18:47:55.273Z,25.65
2019-04-21T18:50:41.607Z,25.95
2019-04-21T18:56:01.860Z,23.55
2019-04-21T18:58:32.971Z,22.55
2019-04-21T19:01:18.267Z,20.37
2019-04-21T19:03:47.598Z,21.52
2019-04-21T19:06:40.559Z,22.58
2019-04-21T19:09:21.564Z,22.22
2019-04-21T19:11:55.870Z,21.68
2019-04-21T19:14:36.268Z,20.43
2019-04-21T19:17:39.577Z,20.32
2019-04-21T19:20:16.022Z,20.37
2019-04-21T19:22:15.722Z,19.30
2019-04-21T19:24:54.909Z,19.62
2019-04-21T19:27:39.981Z,14.55
2019-04-21T19:30:05.671Z,16.45
2019-04-21T19:32:28.763Z,18.65
2019-04-21T19:34:47.406Z,16.30
2019-04-21T19:37:22.093Z,18.82
2019-04-21T19:40:01.874Z,20.08
2019-04-21T19:42:38.282Z,18.87
2019-04-21T19:45:15.226Z,16.30
2019-04-21T19:47:48.780Z,16.23
2019-04-21T19:50:32.242Z,14.73
2019-04-21T19:52:49.644Z,13.58
2019-04-21T19:55:12.153Z,14.00
2019-04-21T19:57:50.207Z,12.33
2019-04-21T20:00:22.391Z,12.68
2019-04-21T20:02:54.520Z,13.98
2019-04-21T20:05:35.249Z,14.68
2019-04-21T20:08:16.347Z,13.32
2019-04-21T20:10:50.425Z,13.75
2019-04-21T20:13:35.332Z,13.65
2019-04-21T20:15:57.134Z,15.00
2019-04-21T20:18:20.938Z,13.65
2019-04-21T20:20:41.071Z,14.03
2019-04-21T20:23:16.960Z,14.30
2019-04-21T20:25:52.574Z,13.75
2019-04-21T20:28:30.839Z,13.78
2019-04-21T20:31:07.884Z,13.75
2019-04-21T20:36:16.944Z,13.35
2019-04-21T20:38:38.343Z,14.90
2019-04-21T20:41:15.811Z,14.23
2019-04-21T20:43:53.820Z,17.67
2019-04-21T20:46:24.853Z,17.27
2019-04-21T20:48:52.404Z,20.08
2019-04-21T20:51:31.352Z,21.05
2019-04-21T20:54:00.515Z,21.93
2019-04-21T20:56:57.837Z,24.55
2019-04-21T20:59:26.901Z,22.67
2019-04-21T21:02:01.373Z,21.55
2019-04-21T21:04:27.980Z,21.85
2019-04-21T21:07:25.912Z,21.48
2019-04-21T21:09:41.500Z,21.90
2019-04-21T21:12:41.070Z,20.80
2019-04-21T21:14:45.855Z,18.42
2019-04-21T21:17:39.298Z,19.27
2019-04-21T21:20:00.791Z,20.00
2019-04-21T21:22:23.198Z,17.62
2019-04-21T21:25:00.158Z,15.95
2019-04-21T21:27:29.156Z,16.02
2019-04-21T21:30:05.800Z,13.35
2019-04-21T21:32:37.332Z,12.23
2019-04-21T21:35:08.277Z,13.08
2019-04-21T21:37:45.167Z,12.73
2019-04-21T21:40:20.085Z,12.00
2019-04-21T21:42:37.420Z,12.33
2019-04-21T21:45:11.577Z,12.60
2019-04-21T21:47:54.719Z,13.20
2019-04-21T21:50:23.560Z,12.90
2019-04-21T21:52:58.556Z,12.18
2019-04-21T21:55:23.633Z,10.98
2019-04-21T21:57:58.819Z,10.95
2019-04-21T22:00:30.147Z,10.25
2019-04-21T22:03:11.950Z,12.20
2019-04-21T22:05:43.382Z,12.55
2019-04-21T22:08:06.832Z,15.15
2019-04-21T22:10:39.076Z,16.00
2019-04-21T22:13:14.781Z,14.85
2019-04-21T22:15:43.584Z,14.55
2019-04-21T22:18:31.443Z,15.83
2019-04-21T22:21:04.923Z,16.97
2019-04-21T22:23:32.415Z,16.80
2019-04-21T22:25:53.511Z,17.67
2019-04-21T22:28:25.394Z,23.80
2019-04-21T22:30:58.750Z,27.62
2019-04-21T22:33:34.502Z,50.15
2019-04-21T22:36:09.940Z,54.23
2019-04-21T22:38:47.535Z,84.07
2019-04-21T22:41:18.902Z,37.98
2019-04-21T22:43:43.507Z,16.50
2019-04-21T22:46:15.012Z,17.77
2019-04-21T22:48:46.034Z,17.82
2019-04-21T22:51:24.695Z,20.37
2019-04-21T22:53:52.188Z,23.18
2019-04-21T22:56:26.897Z,20.65
2019-04-21T22:58:55.099Z,17.45
2019-04-21T23:01:33.436Z,19.50
2019-04-21T23:04:02.565Z,17.60
2019-04-21T23:06:34.342Z,17.85
2019-04-21T23:09:06.618Z,15.20
2019-04-21T23:11:45.060Z,15.05
2019-04-21T23:14:12.222Z,13.10
2019-04-21T23:16:45.602Z,13.43
2019-04-21T23:19:28.026Z,18.17
2019-04-21T23:22:05.652Z,15.43
2019-04-21T23:24:40.374Z,15.43
2019-04-21T23:27:06.315Z,15.93
2019-04-21T23:29:55.337Z,15.35
2019-04-21T23:32:14.984Z,15.08
2019-04-21T23:34:36.567Z,14.68
2019-04-21T23:37:10.585Z,17.15
2019-04-21T23:39:37.437Z,18.05
2019-04-21T23:42:09.104Z,14.93
2019-04-21T23:44:47.023Z,14.15
2019-04-21T23:47:27.941Z,14.15
2019-04-21T23:49:53.421Z,15.05
2019-04-21T23:52:18.324Z,15.38
2019-04-21T23:54:51.574Z,14.90
2019-04-21T23:57:31.489Z,15.38
2019-04-21T23:59:57.416Z,18.23
